Terminal Aerodrome Forecast
Issued by NWS Paducah, KY

Home | Current Version | Previous Version | Text Only | Print | Product List | Glossary On
Versions: 1 2 3 4 5 6 7 8 9 10 11 12 13 14 15 16 17 18 19 20 21 22
755
FTUS43 KPAH 202320
TAFPAH
TAF
KPAH 202320Z 2100/2124 18012G21KT P6SM SCT040 BKN080
     FM210400 19015G23KT P6SM SCT015 BKN025
     FM210700 31013G22KT 4SM -SHRA BR SCT008 OVC015
      TEMPO 2107/2110 2SM SHRA BR OVC008
     FM211000 36013G22KT 3SM -SHRA BR OVC008
     FM211400 01015G25KT 6SM HZ OVC005
     FM212100 03012G20KT 4SM -SHRA OVC006=

USA.gov is the U.S. government's official web portal to all federal, state and local government web resources and services.